sensor_id;sensor_type;location;lat;lon;timestamp;P1;durP1;ratioP1;P2;durP2;ratioP2
7997;SDS011;4044;49.814;7.828;2022-09-09T00:06:32;3.80;;;2.30;;
7997;SDS011;4044;49.814;7.828;2022-09-09T00:11:39;6.50;;;2.30;;
7997;SDS011;4044;49.814;7.828;2022-09-09T00:14:14;6.67;;;2.57;;
7997;SDS011;4044;49.814;7.828;2022-09-09T00:16:57;3.20;;;2.27;;
7997;SDS011;4044;49.814;7.828;2022-09-09T00:19:29;2.27;;;1.87;;
7997;SDS011;4044;49.814;7.828;2022-09-09T00:22:18;4.70;;;2.10;;
7997;SDS011;4044;49.814;7.828;2022-09-09T00:24:46;4.77;;;2.40;;
7997;SDS011;4044;49.814;7.828;2022-09-09T00:27:29;3.23;;;2.30;;
7997;SDS011;4044;49.814;7.828;2022-09-09T00:32:58;4.33;;;2.50;;
7997;SDS011;4044;49.814;7.828;2022-09-09T00:38:10;3.73;;;2.20;;
7997;SDS011;4044;49.814;7.828;2022-09-09T00:40:41;5.87;;;2.37;;
7997;SDS011;4044;49.814;7.828;2022-09-09T00:43:30;2.80;;;2.20;;
7997;SDS011;4044;49.814;7.828;2022-09-09T00:48:52;4.13;;;2.70;;
7997;SDS011;4044;49.814;7.828;2022-09-09T00:53:58;4.07;;;2.40;;
7997;SDS011;4044;49.814;7.828;2022-09-09T00:56:53;4.73;;;2.37;;
7997;SDS011;4044;49.814;7.828;2022-09-09T00:59:45;3.77;;;2.30;;
7997;SDS011;4044;49.814;7.828;2022-09-09T01:02:30;6.77;;;2.50;;
7997;SDS011;4044;49.814;7.828;2022-09-09T01:05:12;4.10;;;2.30;;
7997;SDS011;4044;49.814;7.828;2022-09-09T01:07:52;3.63;;;2.23;;
7997;SDS011;4044;49.814;7.828;2022-09-09T01:13:28;4.07;;;2.03;;
7997;SDS011;4044;49.814;7.828;2022-09-09T01:16:00;4.50;;;2.37;;
7997;SDS011;4044;49.814;7.828;2022-09-09T01:18:39;5.67;;;2.07;;
7997;SDS011;4044;49.814;7.828;2022-09-09T01:26:46;6.20;;;2.40;;
7997;SDS011;4044;49.814;7.828;2022-09-09T01:29:14;4.70;;;2.50;;
7997;SDS011;4044;49.814;7.828;2022-09-09T01:31:42;3.77;;;2.20;;
7997;SDS011;4044;49.814;7.828;2022-09-09T01:34:18;5.57;;;2.20;;
7997;SDS011;4044;49.814;7.828;2022-09-09T01:36:45;5.53;;;2.27;;
7997;SDS011;4044;49.814;7.828;2022-09-09T01:39:16;6.40;;;2.30;;
7997;SDS011;4044;49.814;7.828;2022-09-09T01:41:42;3.27;;;2.30;;
7997;SDS011;4044;49.814;7.828;2022-09-09T01:44:08;4.00;;;2.20;;
7997;SDS011;4044;49.814;7.828;2022-09-09T01:46:34;2.47;;;1.80;;
7997;SDS011;4044;49.814;7.828;2022-09-09T01:49:00;5.97;;;2.50;;
7997;SDS011;4044;49.814;7.828;2022-09-09T01:51:28;6.97;;;2.20;;
7997;SDS011;4044;49.814;7.828;2022-09-09T01:53:53;3.87;;;2.00;;
7997;SDS011;4044;49.814;7.828;2022-09-09T01:57:05;4.07;;;2.20;;
7997;SDS011;4044;49.814;7.828;2022-09-09T01:59:20;5.43;;;2.20;;
7997;SDS011;4044;49.814;7.828;2022-09-09T02:04:47;5.40;;;2.17;;
7997;SDS011;4044;49.814;7.828;2022-09-09T02:10:32;2.37;;;2.17;;
7997;SDS011;4044;49.814;7.828;2022-09-09T02:13:10;4.07;;;2.40;;
7997;SDS011;4044;49.814;7.828;2022-09-09T02:18:30;4.90;;;2.53;;
7997;SDS011;4044;49.814;7.828;2022-09-09T02:21:03;3.17;;;2.30;;
7997;SDS011;4044;49.814;7.828;2022-09-09T02:23:31;4.93;;;2.47;;
7997;SDS011;4044;49.814;7.828;2022-09-09T02:25:58;6.60;;;2.60;;
7997;SDS011;4044;49.814;7.828;2022-09-09T02:28:27;5.50;;;2.30;;
7997;SDS011;4044;49.814;7.828;2022-09-09T02:30:55;4.83;;;2.50;;
7997;SDS011;4044;49.814;7.828;2022-09-09T02:33:22;2.67;;;2.40;;
7997;SDS011;4044;49.814;7.828;2022-09-09T02:35:52;4.27;;;2.47;;
7997;SDS011;4044;49.814;7.828;2022-09-09T02:38:18;4.53;;;2.40;;
7997;SDS011;4044;49.814;7.828;2022-09-09T02:40:46;2.90;;;2.20;;
7997;SDS011;4044;49.814;7.828;2022-09-09T02:43:13;5.03;;;2.63;;
7997;SDS011;4044;49.814;7.828;2022-09-09T02:45:42;6.43;;;2.37;;
7997;SDS011;4044;49.814;7.828;2022-09-09T02:48:26;4.30;;;2.20;;
7997;SDS011;4044;49.814;7.828;2022-09-09T02:51:04;9.50;;;2.63;;
7997;SDS011;4044;49.814;7.828;2022-09-09T02:56:22;4.47;;;2.40;;
7997;SDS011;4044;49.814;7.828;2022-09-09T02:58:53;3.20;;;2.27;;
7997;SDS011;4044;49.814;7.828;2022-09-09T03:01:19;7.23;;;2.40;;
7997;SDS011;4044;49.814;7.828;2022-09-09T03:03:45;4.40;;;2.20;;
7997;SDS011;4044;49.814;7.828;2022-09-09T03:06:11;8.20;;;2.40;;
7997;SDS011;4044;49.814;7.828;2022-09-09T03:08:37;5.77;;;2.50;;
7997;SDS011;4044;49.814;7.828;2022-09-09T03:11:03;4.07;;;2.43;;
7997;SDS011;4044;49.814;7.828;2022-09-09T03:13:28;2.30;;;2.10;;
7997;SDS011;4044;49.814;7.828;2022-09-09T03:15:54;4.50;;;2.60;;
7997;SDS011;4044;49.814;7.828;2022-09-09T03:18:20;3.47;;;2.30;;
7997;SDS011;4044;49.814;7.828;2022-09-09T03:20:46;5.17;;;2.50;;
7997;SDS011;4044;49.814;7.828;2022-09-09T03:23:13;5.03;;;2.50;;
7997;SDS011;4044;49.814;7.828;2022-09-09T03:25:39;5.93;;;2.30;;
7997;SDS011;4044;49.814;7.828;2022-09-09T03:28:11;4.00;;;2.43;;
7997;SDS011;4044;49.814;7.828;2022-09-09T03:30:36;6.23;;;2.77;;
7997;SDS011;4044;49.814;7.828;2022-09-09T03:33:02;5.07;;;2.37;;
7997;SDS011;4044;49.814;7.828;2022-09-09T03:35:28;4.37;;;2.30;;
7997;SDS011;4044;49.814;7.828;2022-09-09T03:37:54;6.67;;;2.70;;
7997;SDS011;4044;49.814;7.828;2022-09-09T03:40:20;4.20;;;2.30;;
7997;SDS011;4044;49.814;7.828;2022-09-09T03:42:46;6.63;;;2.70;;
7997;SDS011;4044;49.814;7.828;2022-09-09T03:45:13;3.93;;;2.43;;
7997;SDS011;4044;49.814;7.828;2022-09-09T03:47:38;3.80;;;2.40;;
7997;SDS011;4044;49.814;7.828;2022-09-09T03:50:04;5.73;;;2.80;;
7997;SDS011;4044;49.814;7.828;2022-09-09T03:52:34;6.47;;;2.67;;
7997;SDS011;4044;49.814;7.828;2022-09-09T03:55:03;4.43;;;2.40;;
7997;SDS011;4044;49.814;7.828;2022-09-09T03:57:30;4.03;;;2.43;;
7997;SDS011;4044;49.814;7.828;2022-09-09T03:59:56;5.70;;;2.20;;
7997;SDS011;4044;49.814;7.828;2022-09-09T04:02:22;4.83;;;2.50;;
7997;SDS011;4044;49.814;7.828;2022-09-09T04:04:48;7.70;;;2.80;;
7997;SDS011;4044;49.814;7.828;2022-09-09T04:07:14;5.00;;;2.80;;
7997;SDS011;4044;49.814;7.828;2022-09-09T04:09:39;5.80;;;2.90;;
7997;SDS011;4044;49.814;7.828;2022-09-09T04:12:05;6.50;;;2.70;;
7997;SDS011;4044;49.814;7.828;2022-09-09T04:14:31;6.40;;;2.87;;
7997;SDS011;4044;49.814;7.828;2022-09-09T04:16:57;7.07;;;2.80;;
7997;SDS011;4044;49.814;7.828;2022-09-09T04:19:24;4.80;;;2.90;;
7997;SDS011;4044;49.814;7.828;2022-09-09T04:21:50;5.83;;;2.93;;
7997;SDS011;4044;49.814;7.828;2022-09-09T04:24:16;9.70;;;3.20;;
7997;SDS011;4044;49.814;7.828;2022-09-09T04:26:42;5.37;;;2.47;;
7997;SDS011;4044;49.814;7.828;2022-09-09T04:29:08;4.03;;;2.73;;
7997;SDS011;4044;49.814;7.828;2022-09-09T04:31:34;6.73;;;2.90;;
7997;SDS011;4044;49.814;7.828;2022-09-09T04:34:00;4.80;;;2.77;;
7997;SDS011;4044;49.814;7.828;2022-09-09T04:36:30;4.77;;;2.40;;
7997;SDS011;4044;49.814;7.828;2022-09-09T04:38:56;5.17;;;2.63;;
7997;SDS011;4044;49.814;7.828;2022-09-09T04:41:22;4.37;;;2.87;;
7997;SDS011;4044;49.814;7.828;2022-09-09T04:43:48;5.53;;;2.73;;
7997;SDS011;4044;49.814;7.828;2022-09-09T04:46:14;6.87;;;2.63;;
7997;SDS011;4044;49.814;7.828;2022-09-09T04:48:42;5.67;;;2.80;;
7997;SDS011;4044;49.814;7.828;2022-09-09T04:51:08;6.23;;;3.10;;
7997;SDS011;4044;49.814;7.828;2022-09-09T04:53:37;6.17;;;3.03;;
7997;SDS011;4044;49.814;7.828;2022-09-09T04:56:03;5.23;;;2.83;;
7997;SDS011;4044;49.814;7.828;2022-09-09T04:58:35;8.03;;;2.97;;
7997;SDS011;4044;49.814;7.828;2022-09-09T05:01:08;6.70;;;2.67;;
7997;SDS011;4044;49.814;7.828;2022-09-09T05:03:35;10.30;;;2.97;;
7997;SDS011;4044;49.814;7.828;2022-09-09T05:06:10;9.67;;;2.77;;
7997;SDS011;4044;49.814;7.828;2022-09-09T05:08:38;5.27;;;2.93;;
7997;SDS011;4044;49.814;7.828;2022-09-09T05:11:25;6.87;;;2.90;;
7997;SDS011;4044;49.814;7.828;2022-09-09T05:13:52;5.50;;;2.67;;
7997;SDS011;4044;49.814;7.828;2022-09-09T05:16:18;6.30;;;2.50;;
7997;SDS011;4044;49.814;7.828;2022-09-09T05:18:44;6.10;;;2.97;;
7997;SDS011;4044;49.814;7.828;2022-09-09T05:21:15;8.97;;;2.60;;
7997;SDS011;4044;49.814;7.828;2022-09-09T05:23:41;4.23;;;2.83;;
7997;SDS011;4044;49.814;7.828;2022-09-09T05:26:08;6.13;;;2.50;;
7997;SDS011;4044;49.814;7.828;2022-09-09T05:28:37;6.10;;;2.57;;
7997;SDS011;4044;49.814;7.828;2022-09-09T05:31:07;4.53;;;3.23;;
7997;SDS011;4044;49.814;7.828;2022-09-09T05:33:33;6.50;;;2.50;;
7997;SDS011;4044;49.814;7.828;2022-09-09T05:36:01;8.13;;;3.07;;
7997;SDS011;4044;49.814;7.828;2022-09-09T05:38:31;7.30;;;3.40;;
7997;SDS011;4044;49.814;7.828;2022-09-09T05:40:57;5.40;;;3.20;;
7997;SDS011;4044;49.814;7.828;2022-09-09T05:43:23;7.43;;;3.20;;
7997;SDS011;4044;49.814;7.828;2022-09-09T05:46:03;4.37;;;3.10;;
7997;SDS011;4044;49.814;7.828;2022-09-09T05:48:31;6.77;;;3.10;;
7997;SDS011;4044;49.814;7.828;2022-09-09T05:50:58;5.73;;;2.93;;
7997;SDS011;4044;49.814;7.828;2022-09-09T05:53:25;4.20;;;3.00;;
7997;SDS011;4044;49.814;7.828;2022-09-09T05:55:58;4.43;;;2.90;;
7997;SDS011;4044;49.814;7.828;2022-09-09T05:58:24;4.87;;;2.63;;
7997;SDS011;4044;49.814;7.828;2022-09-09T06:00:50;6.40;;;2.73;;
7997;SDS011;4044;49.814;7.828;2022-09-09T06:03:15;6.53;;;2.90;;
7997;SDS011;4044;49.814;7.828;2022-09-09T06:05:41;4.40;;;2.60;;
7997;SDS011;4044;49.814;7.828;2022-09-09T06:08:07;6.77;;;2.73;;
7997;SDS011;4044;49.814;7.828;2022-09-09T06:10:33;3.27;;;2.67;;
7997;SDS011;4044;49.814;7.828;2022-09-09T06:12:59;4.40;;;2.50;;
7997;SDS011;4044;49.814;7.828;2022-09-09T06:15:24;7.70;;;3.20;;
7997;SDS011;4044;49.814;7.828;2022-09-09T06:17:54;3.95;;;2.65;;
7997;SDS011;4044;49.814;7.828;2022-09-09T06:20:20;3.85;;;2.50;;
7997;SDS011;4044;49.814;7.828;2022-09-09T06:22:46;2.88;;;2.40;;
7997;SDS011;4044;49.814;7.828;2022-09-09T06:25:13;4.15;;;2.20;;
7997;SDS011;4044;49.814;7.828;2022-09-09T06:27:39;5.88;;;2.65;;
7997;SDS011;4044;49.814;7.828;2022-09-09T06:30:05;5.65;;;3.13;;
7997;SDS011;4044;49.814;7.828;2022-09-09T06:32:32;4.65;;;2.97;;
7997;SDS011;4044;49.814;7.828;2022-09-09T06:34:59;6.18;;;2.80;;
7997;SDS011;4044;49.814;7.828;2022-09-09T06:37:26;5.18;;;2.85;;
7997;SDS011;4044;49.814;7.828;2022-09-09T06:39:52;6.35;;;3.15;;
7997;SDS011;4044;49.814;7.828;2022-09-09T06:42:19;3.55;;;3.00;;
7997;SDS011;4044;49.814;7.828;2022-09-09T06:44:45;6.05;;;3.45;;
7997;SDS011;4044;49.814;7.828;2022-09-09T06:47:10;8.98;;;3.90;;
7997;SDS011;4044;49.814;7.828;2022-09-09T06:49:36;7.07;;;3.90;;
7997;SDS011;4044;49.814;7.828;2022-09-09T06:52:01;4.07;;;3.70;;
7997;SDS011;4044;49.814;7.828;2022-09-09T06:54:27;6.60;;;3.92;;
7997;SDS011;4044;49.814;7.828;2022-09-09T06:56:53;5.80;;;3.70;;
7997;SDS011;4044;49.814;7.828;2022-09-09T06:59:19;5.03;;;4.00;;
7997;SDS011;4044;49.814;7.828;2022-09-09T07:01:44;6.68;;;3.83;;
7997;SDS011;4044;49.814;7.828;2022-09-09T07:04:10;6.22;;;3.88;;
7997;SDS011;4044;49.814;7.828;2022-09-09T07:06:37;5.22;;;3.00;;
7997;SDS011;4044;49.814;7.828;2022-09-09T07:09:05;6.22;;;3.45;;
7997;SDS011;4044;49.814;7.828;2022-09-09T07:11:36;5.20;;;3.70;;
7997;SDS011;4044;49.814;7.828;2022-09-09T07:14:04;6.55;;;4.15;;
7997;SDS011;4044;49.814;7.828;2022-09-09T07:16:29;5.88;;;4.15;;
7997;SDS011;4044;49.814;7.828;2022-09-09T07:18:58;5.65;;;4.18;;
7997;SDS011;4044;49.814;7.828;2022-09-09T07:21:25;3.70;;;3.33;;
7997;SDS011;4044;49.814;7.828;2022-09-09T07:23:52;10.77;;;3.50;;
7997;SDS011;4044;49.814;7.828;2022-09-09T07:26:19;5.85;;;3.95;;
7997;SDS011;4044;49.814;7.828;2022-09-09T07:28:47;7.82;;;3.70;;
7997;SDS011;4044;49.814;7.828;2022-09-09T07:31:32;4.40;;;3.33;;
7997;SDS011;4044;49.814;7.828;2022-09-09T07:34:01;5.93;;;3.60;;
7997;SDS011;4044;49.814;7.828;2022-09-09T07:36:37;5.05;;;3.00;;
7997;SDS011;4044;49.814;7.828;2022-09-09T07:39:06;6.70;;;3.10;;
7997;SDS011;4044;49.814;7.828;2022-09-09T07:41:35;6.20;;;3.28;;
7997;SDS011;4044;49.814;7.828;2022-09-09T07:44:06;4.63;;;3.05;;
7997;SDS011;4044;49.814;7.828;2022-09-09T07:46:34;5.72;;;2.95;;
7997;SDS011;4044;49.814;7.828;2022-09-09T07:49:00;4.32;;;2.83;;
7997;SDS011;4044;49.814;7.828;2022-09-09T07:51:28;7.18;;;3.13;;
7997;SDS011;4044;49.814;7.828;2022-09-09T07:53:59;7.63;;;2.83;;
7997;SDS011;4044;49.814;7.828;2022-09-09T07:56:27;4.85;;;2.63;;
7997;SDS011;4044;49.814;7.828;2022-09-09T07:58:54;6.15;;;3.10;;
7997;SDS011;4044;49.814;7.828;2022-09-09T08:01:30;8.55;;;3.92;;
7997;SDS011;4044;49.814;7.828;2022-09-09T08:04:05;15.52;;;4.38;;
7997;SDS011;4044;49.814;7.828;2022-09-09T08:06:33;10.88;;;4.55;;
7997;SDS011;4044;49.814;7.828;2022-09-09T08:09:00;7.55;;;4.25;;
7997;SDS011;4044;49.814;7.828;2022-09-09T08:11:27;9.65;;;5.43;;
7997;SDS011;4044;49.814;7.828;2022-09-09T08:13:54;9.95;;;5.00;;
7997;SDS011;4044;49.814;7.828;2022-09-09T08:16:21;7.32;;;4.32;;
7997;SDS011;4044;49.814;7.828;2022-09-09T08:18:49;7.15;;;5.03;;
7997;SDS011;4044;49.814;7.828;2022-09-09T08:21:16;9.10;;;4.10;;
7997;SDS011;4044;49.814;7.828;2022-09-09T08:23:44;14.40;;;4.55;;
7997;SDS011;4044;49.814;7.828;2022-09-09T08:26:12;5.68;;;3.60;;
7997;SDS011;4044;49.814;7.828;2022-09-09T08:28:40;8.60;;;4.03;;
7997;SDS011;4044;49.814;7.828;2022-09-09T08:31:16;8.10;;;3.30;;
7997;SDS011;4044;49.814;7.828;2022-09-09T08:33:46;5.90;;;2.47;;
7997;SDS011;4044;49.814;7.828;2022-09-09T08:36:13;5.22;;;2.70;;
7997;SDS011;4044;49.814;7.828;2022-09-09T08:38:43;5.55;;;2.70;;
7997;SDS011;4044;49.814;7.828;2022-09-09T08:41:30;4.78;;;2.83;;
7997;SDS011;4044;49.814;7.828;2022-09-09T08:44:21;4.05;;;2.63;;
7997;SDS011;4044;49.814;7.828;2022-09-09T08:52:22;5.85;;;2.55;;
7997;SDS011;4044;49.814;7.828;2022-09-09T08:54:52;5.03;;;2.55;;
7997;SDS011;4044;49.814;7.828;2022-09-09T08:57:23;5.57;;;2.55;;
7997;SDS011;4044;49.814;7.828;2022-09-09T08:59:52;3.95;;;2.00;;
7997;SDS011;4044;49.814;7.828;2022-09-09T09:02:37;5.15;;;2.40;;
7997;SDS011;4044;49.814;7.828;2022-09-09T09:05:23;5.93;;;2.20;;
7997;SDS011;4044;49.814;7.828;2022-09-09T09:08:35;4.07;;;2.22;;
7997;SDS011;4044;49.814;7.828;2022-09-09T09:11:24;3.90;;;2.28;;
7997;SDS011;4044;49.814;7.828;2022-09-09T09:14:01;3.53;;;2.05;;
7997;SDS011;4044;49.814;7.828;2022-09-09T09:16:38;3.08;;;1.85;;
7997;SDS011;4044;49.814;7.828;2022-09-09T09:19:15;5.15;;;2.10;;
7997;SDS011;4044;49.814;7.828;2022-09-09T09:27:21;5.97;;;1.90;;
7997;SDS011;4044;49.814;7.828;2022-09-09T09:29:56;5.57;;;1.75;;
7997;SDS011;4044;49.814;7.828;2022-09-09T09:32:28;4.35;;;1.90;;
7997;SDS011;4044;49.814;7.828;2022-09-09T09:34:58;5.32;;;1.83;;
7997;SDS011;4044;49.814;7.828;2022-09-09T09:37:30;6.35;;;1.90;;
7997;SDS011;4044;49.814;7.828;2022-09-09T09:45:45;3.78;;;1.73;;
7997;SDS011;4044;49.814;7.828;2022-09-09T09:48:11;4.65;;;1.80;;
7997;SDS011;4044;49.814;7.828;2022-09-09T09:50:51;2.38;;;1.58;;
7997;SDS011;4044;49.814;7.828;2022-09-09T09:53:26;2.92;;;1.58;;
7997;SDS011;4044;49.814;7.828;2022-09-09T09:56:03;3.03;;;1.50;;
7997;SDS011;4044;49.814;7.828;2022-09-09T09:58:32;2.80;;;1.67;;
7997;SDS011;4044;49.814;7.828;2022-09-09T10:01:02;7.43;;;1.92;;
7997;SDS011;4044;49.814;7.828;2022-09-09T10:05:58;5.38;;;2.08;;
7997;SDS011;4044;49.814;7.828;2022-09-09T10:08:24;2.65;;;1.42;;
7997;SDS011;4044;49.814;7.828;2022-09-09T10:13:31;5.93;;;1.88;;
7997;SDS011;4044;49.814;7.828;2022-09-09T10:18:42;1.90;;;1.48;;
7997;SDS011;4044;49.814;7.828;2022-09-09T10:24:00;1.52;;;1.42;;
7997;SDS011;4044;49.814;7.828;2022-09-09T10:26:38;3.22;;;1.50;;
7997;SDS011;4044;49.814;7.828;2022-09-09T10:29:22;4.70;;;1.65;;
7997;SDS011;4044;49.814;7.828;2022-09-09T10:42:50;4.45;;;1.80;;
7997;SDS011;4044;49.814;7.828;2022-09-09T10:56:22;3.88;;;1.88;;
7997;SDS011;4044;49.814;7.828;2022-09-09T10:58:50;4.43;;;1.67;;
7997;SDS011;4044;49.814;7.828;2022-09-09T11:01:22;3.25;;;1.60;;
7997;SDS011;4044;49.814;7.828;2022-09-09T11:03:53;3.42;;;1.48;;
7997;SDS011;4044;49.814;7.828;2022-09-09T11:06:25;3.22;;;1.75;;
7997;SDS011;4044;49.814;7.828;2022-09-09T11:08:56;4.35;;;1.85;;
7997;SDS011;4044;49.814;7.828;2022-09-09T11:16:53;4.03;;;1.77;;
7997;SDS011;4044;49.814;7.828;2022-09-09T11:19:24;5.03;;;1.90;;
7997;SDS011;4044;49.814;7.828;2022-09-09T11:21:56;2.78;;;1.48;;
7997;SDS011;4044;49.814;7.828;2022-09-09T11:24:31;6.15;;;1.88;;
7997;SDS011;4044;49.814;7.828;2022-09-09T11:27:02;5.40;;;1.92;;
7997;SDS011;4044;49.814;7.828;2022-09-09T11:38:25;15.32;;;3.00;;
7997;SDS011;4044;49.814;7.828;2022-09-09T11:41:04;55.03;;;6.45;;
7997;SDS011;4044;49.814;7.828;2022-09-09T11:43:33;6.95;;;2.50;;
7997;SDS011;4044;49.814;7.828;2022-09-09T11:46:04;15.98;;;3.97;;
7997;SDS011;4044;49.814;7.828;2022-09-09T11:48:34;9.73;;;4.53;;
7997;SDS011;4044;49.814;7.828;2022-09-09T11:53:30;11.77;;;4.88;;
7997;SDS011;4044;49.814;7.828;2022-09-09T11:56:00;8.75;;;4.60;;
7997;SDS011;4044;49.814;7.828;2022-09-09T11:58:31;9.77;;;3.42;;
7997;SDS011;4044;49.814;7.828;2022-09-09T12:01:24;6.18;;;2.88;;
7997;SDS011;4044;49.814;7.828;2022-09-09T12:04:05;7.53;;;2.78;;
7997;SDS011;4044;49.814;7.828;2022-09-09T12:07:00;4.20;;;2.50;;
7997;SDS011;4044;49.814;7.828;2022-09-09T12:09:48;3.58;;;2.30;;
7997;SDS011;4044;49.814;7.828;2022-09-09T12:12:22;2.95;;;1.70;;
7997;SDS011;4044;49.814;7.828;2022-09-09T12:17:29;4.40;;;1.80;;
7997;SDS011;4044;49.814;7.828;2022-09-09T12:20:00;1.75;;;1.20;;
7997;SDS011;4044;49.814;7.828;2022-09-09T12:23:09;3.38;;;1.20;;
7997;SDS011;4044;49.814;7.828;2022-09-09T12:34:02;2.97;;;1.27;;
7997;SDS011;4044;49.814;7.828;2022-09-09T12:36:34;6.57;;;1.60;;
7997;SDS011;4044;49.814;7.828;2022-09-09T12:39:09;1.13;;;0.98;;
7997;SDS011;4044;49.814;7.828;2022-09-09T12:41:55;1.65;;;0.93;;
7997;SDS011;4044;49.814;7.828;2022-09-09T12:44:22;1.73;;;1.10;;
7997;SDS011;4044;49.814;7.828;2022-09-09T12:46:48;1.77;;;0.98;;
7997;SDS011;4044;49.814;7.828;2022-09-09T12:49:24;1.50;;;0.90;;
7997;SDS011;4044;49.814;7.828;2022-09-09T12:51:58;1.33;;;1.10;;
7997;SDS011;4044;49.814;7.828;2022-09-09T12:54:30;1.98;;;1.10;;
7997;SDS011;4044;49.814;7.828;2022-09-09T12:56:56;0.90;;;0.88;;
7997;SDS011;4044;49.814;7.828;2022-09-09T12:59:36;3.15;;;1.17;;
7997;SDS011;4044;49.814;7.828;2022-09-09T13:02:26;2.00;;;1.02;;
7997;SDS011;4044;49.814;7.828;2022-09-09T13:04:50;1.95;;;1.00;;
7997;SDS011;4044;49.814;7.828;2022-09-09T13:07:17;2.05;;;1.17;;
7997;SDS011;4044;49.814;7.828;2022-09-09T13:09:44;2.13;;;1.20;;
7997;SDS011;4044;49.814;7.828;2022-09-09T13:12:18;1.40;;;1.05;;
7997;SDS011;4044;49.814;7.828;2022-09-09T13:14:48;2.03;;;1.20;;
7997;SDS011;4044;49.814;7.828;2022-09-09T13:17:37;3.42;;;1.40;;
7997;SDS011;4044;49.814;7.828;2022-09-09T13:20:03;1.98;;;1.13;;
7997;SDS011;4044;49.814;7.828;2022-09-09T13:22:30;3.33;;;1.33;;
7997;SDS011;4044;49.814;7.828;2022-09-09T13:25:02;4.28;;;1.50;;
7997;SDS011;4044;49.814;7.828;2022-09-09T13:27:32;4.50;;;1.40;;
7997;SDS011;4044;49.814;7.828;2022-09-09T13:30:00;2.45;;;1.23;;
7997;SDS011;4044;49.814;7.828;2022-09-09T13:32:27;3.95;;;1.60;;
7997;SDS011;4044;49.814;7.828;2022-09-09T13:34:54;4.53;;;1.50;;
7997;SDS011;4044;49.814;7.828;2022-09-09T13:39:58;4.10;;;1.98;;
7997;SDS011;4044;49.814;7.828;2022-09-09T13:42:30;6.72;;;1.90;;
7997;SDS011;4044;49.814;7.828;2022-09-09T13:44:59;6.15;;;2.20;;
7997;SDS011;4044;49.814;7.828;2022-09-09T13:47:30;5.30;;;2.05;;
7997;SDS011;4044;49.814;7.828;2022-09-09T13:50:09;5.55;;;1.90;;
7997;SDS011;4044;49.814;7.828;2022-09-09T13:52:44;5.35;;;1.80;;
7997;SDS011;4044;49.814;7.828;2022-09-09T13:55:09;4.40;;;2.10;;
7997;SDS011;4044;49.814;7.828;2022-09-09T13:57:35;3.20;;;2.13;;
7997;SDS011;4044;49.814;7.828;2022-09-09T14:00:00;4.30;;;2.30;;
7997;SDS011;4044;49.814;7.828;2022-09-09T14:02:26;4.35;;;2.55;;
7997;SDS011;4044;49.814;7.828;2022-09-09T14:04:51;4.55;;;2.65;;
7997;SDS011;4044;49.814;7.828;2022-09-09T14:07:20;4.50;;;2.75;;
7997;SDS011;4044;49.814;7.828;2022-09-09T14:09:46;5.53;;;2.30;;
7997;SDS011;4044;49.814;7.828;2022-09-09T14:12:15;5.72;;;2.17;;
7997;SDS011;4044;49.814;7.828;2022-09-09T14:14:41;6.82;;;2.45;;
7997;SDS011;4044;49.814;7.828;2022-09-09T14:17:07;4.78;;;2.35;;
7997;SDS011;4044;49.814;7.828;2022-09-09T14:19:33;3.38;;;1.75;;
7997;SDS011;4044;49.814;7.828;2022-09-09T14:21:59;3.63;;;1.83;;
7997;SDS011;4044;49.814;7.828;2022-09-09T14:24:26;1.98;;;1.40;;
7997;SDS011;4044;49.814;7.828;2022-09-09T14:26:52;3.90;;;1.65;;
7997;SDS011;4044;49.814;7.828;2022-09-09T14:29:18;3.15;;;1.70;;
7997;SDS011;4044;49.814;7.828;2022-09-09T14:31:43;5.18;;;1.55;;
7997;SDS011;4044;49.814;7.828;2022-09-09T14:34:09;3.15;;;1.63;;
7997;SDS011;4044;49.814;7.828;2022-09-09T14:36:36;3.72;;;1.48;;
7997;SDS011;4044;49.814;7.828;2022-09-09T14:39:02;2.53;;;1.45;;
7997;SDS011;4044;49.814;7.828;2022-09-09T14:41:28;2.45;;;1.30;;
7997;SDS011;4044;49.814;7.828;2022-09-09T14:43:55;3.33;;;1.20;;
7997;SDS011;4044;49.814;7.828;2022-09-09T14:46:21;2.67;;;1.20;;
7997;SDS011;4044;49.814;7.828;2022-09-09T14:48:47;1.48;;;1.30;;
7997;SDS011;4044;49.814;7.828;2022-09-09T14:51:19;1.75;;;1.38;;
7997;SDS011;4044;49.814;7.828;2022-09-09T14:53:47;2.92;;;1.52;;
7997;SDS011;4044;49.814;7.828;2022-09-09T14:56:16;4.38;;;1.23;;
7997;SDS011;4044;49.814;7.828;2022-09-09T14:58:43;2.05;;;1.40;;
7997;SDS011;4044;49.814;7.828;2022-09-09T15:01:10;5.40;;;1.83;;
7997;SDS011;4044;49.814;7.828;2022-09-09T15:03:40;3.00;;;1.20;;
7997;SDS011;4044;49.814;7.828;2022-09-09T15:06:11;3.15;;;1.10;;
7997;SDS011;4044;49.814;7.828;2022-09-09T15:08:39;1.83;;;1.20;;
7997;SDS011;4044;49.814;7.828;2022-09-09T15:11:06;2.63;;;1.20;;
7997;SDS011;4044;49.814;7.828;2022-09-09T15:13:33;1.73;;;1.00;;
7997;SDS011;4044;49.814;7.828;2022-09-09T15:18:32;1.17;;;0.90;;
7997;SDS011;4044;49.814;7.828;2022-09-09T15:20:58;3.47;;;1.15;;
7997;SDS011;4044;49.814;7.828;2022-09-09T15:23:26;1.05;;;0.98;;
7997;SDS011;4044;49.814;7.828;2022-09-09T15:25:52;2.15;;;1.00;;
7997;SDS011;4044;49.814;7.828;2022-09-09T15:28:19;1.55;;;0.95;;
7997;SDS011;4044;49.814;7.828;2022-09-09T15:30:48;1.20;;;1.10;;
7997;SDS011;4044;49.814;7.828;2022-09-09T15:33:14;2.35;;;1.33;;
7997;SDS011;4044;49.814;7.828;2022-09-09T15:35:40;2.33;;;0.90;;
7997;SDS011;4044;49.814;7.828;2022-09-09T15:38:06;4.78;;;1.10;;
7997;SDS011;4044;49.814;7.828;2022-09-09T15:40:31;1.50;;;0.95;;
7997;SDS011;4044;49.814;7.828;2022-09-09T15:42:57;1.80;;;1.05;;
7997;SDS011;4044;49.814;7.828;2022-09-09T15:45:23;1.30;;;0.88;;
7997;SDS011;4044;49.814;7.828;2022-09-09T15:47:49;3.88;;;1.20;;
7997;SDS011;4044;49.814;7.828;2022-09-09T15:50:14;2.65;;;1.10;;
7997;SDS011;4044;49.814;7.828;2022-09-09T15:52:40;1.75;;;0.98;;
7997;SDS011;4044;49.814;7.828;2022-09-09T15:55:06;3.55;;;1.10;;
7997;SDS011;4044;49.814;7.828;2022-09-09T15:57:33;2.88;;;1.40;;
7997;SDS011;4044;49.814;7.828;2022-09-09T16:00:00;2.03;;;1.40;;
7997;SDS011;4044;49.814;7.828;2022-09-09T16:02:27;1.17;;;1.08;;
7997;SDS011;4044;49.814;7.828;2022-09-09T16:04:53;1.83;;;1.23;;
7997;SDS011;4044;49.814;7.828;2022-09-09T16:07:18;2.85;;;0.95;;
7997;SDS011;4044;49.814;7.828;2022-09-09T16:09:44;2.65;;;1.52;;
7997;SDS011;4044;49.814;7.828;2022-09-09T16:12:09;2.50;;;1.27;;
7997;SDS011;4044;49.814;7.828;2022-09-09T16:14:37;2.17;;;1.27;;
7997;SDS011;4044;49.814;7.828;2022-09-09T16:17:04;12.45;;;2.47;;
7997;SDS011;4044;49.814;7.828;2022-09-09T16:19:30;1.33;;;1.10;;
7997;SDS011;4044;49.814;7.828;2022-09-09T16:21:56;4.03;;;1.50;;
7997;SDS011;4044;49.814;7.828;2022-09-09T16:24:22;1.98;;;1.25;;
7997;SDS011;4044;49.814;7.828;2022-09-09T16:26:50;5.40;;;1.50;;
7997;SDS011;4044;49.814;7.828;2022-09-09T16:29:17;3.65;;;1.20;;
7997;SDS011;4044;49.814;7.828;2022-09-09T16:31:44;7.30;;;1.80;;
7997;SDS011;4044;49.814;7.828;2022-09-09T16:34:10;3.58;;;1.48;;
7997;SDS011;4044;49.814;7.828;2022-09-09T16:36:37;1.75;;;1.35;;
7997;SDS011;4044;49.814;7.828;2022-09-09T16:39:07;5.07;;;1.52;;
7997;SDS011;4044;49.814;7.828;2022-09-09T16:41:34;1.80;;;1.60;;
7997;SDS011;4044;49.814;7.828;2022-09-09T16:44:01;3.70;;;1.83;;
7997;SDS011;4044;49.814;7.828;2022-09-09T16:46:29;2.00;;;1.30;;
7997;SDS011;4044;49.814;7.828;2022-09-09T16:48:57;2.67;;;1.27;;
7997;SDS011;4044;49.814;7.828;2022-09-09T16:51:32;3.25;;;1.50;;
7997;SDS011;4044;49.814;7.828;2022-09-09T16:54:00;2.67;;;1.42;;
7997;SDS011;4044;49.814;7.828;2022-09-09T16:56:28;2.08;;;1.60;;
7997;SDS011;4044;49.814;7.828;2022-09-09T16:58:58;2.15;;;1.10;;
7997;SDS011;4044;49.814;7.828;2022-09-09T17:01:26;3.30;;;1.23;;
7997;SDS011;4044;49.814;7.828;2022-09-09T17:03:53;2.40;;;1.05;;
7997;SDS011;4044;49.814;7.828;2022-09-09T17:06:20;2.88;;;1.20;;
7997;SDS011;4044;49.814;7.828;2022-09-09T17:08:46;1.63;;;1.10;;
7997;SDS011;4044;49.814;7.828;2022-09-09T17:11:14;3.38;;;1.40;;
7997;SDS011;4044;49.814;7.828;2022-09-09T17:13:41;2.97;;;1.13;;
7997;SDS011;4044;49.814;7.828;2022-09-09T17:16:07;1.77;;;1.00;;
7997;SDS011;4044;49.814;7.828;2022-09-09T17:18:34;6.15;;;1.15;;
7997;SDS011;4044;49.814;7.828;2022-09-09T17:21:06;2.05;;;1.40;;
7997;SDS011;4044;49.814;7.828;2022-09-09T17:23:34;1.83;;;1.05;;
7997;SDS011;4044;49.814;7.828;2022-09-09T17:26:02;3.58;;;1.20;;
7997;SDS011;4044;49.814;7.828;2022-09-09T17:28:30;1.63;;;1.30;;
7997;SDS011;4044;49.814;7.828;2022-09-09T17:30:56;3.57;;;1.37;;
7997;SDS011;4044;49.814;7.828;2022-09-09T17:33:29;4.13;;;1.20;;